Kano, Nigeria
Current Conditions -  °F | °C
As of 10:00 PM on Thursday 23 Oct 2014 (Local Time) from KQAZ Reporting Station
Clear Clear  
Wind Chill: 82°   Ceiling: Unl
Heat Index: 82°   Visibility: 6mi
Dew Point: 28°   Wind: 2mph
Humidity: 14%   Direction: 110°ESE
Pressure: 29.93"   Gusts: NA
Location:  12°N, 8.52°E
Report Text: KQAZ 232100Z AUTO 11002KT 9999 CLR 28/M02 A2993 RMK CDP03565 CLR
Loading
Personal Weather Stations






























Interactive Weather Map
Tropical Storm Tracking
New forecast layout! Learn more

10-Day Weather Forecast

Advertisements
Track Severe Weather on mobile